Time;durP1;ratioP1;P1;durP2;ratioP2;P2;SDS_P1;SDS_P2;PMS_P1;PMS_P2;Temp;Humidity;BMP_temperature;BMP_pressure;BME280_temperature;BME280_humidity;BME280_pressure;Samples;Min_cycle;Max_cycle;Signal;HPM_P1;HPM_P2
2020/12/22 00:01:31;;;;;;;0.47;0.20;;;9.90;99.90;;;;;;4092207;28;20118;-85
2020/12/22 00:03:32;;;;;;;0.50;0.50;;;10.00;99.90;;;;;;4098684;28;20043;-85
2020/12/22 00:05:33;;;;;;;0.35;0.35;;;10.00;99.90;;;;;;4098210;28;20058;-86
2020/12/22 00:07:35;;;;;;;0.40;0.40;;;9.90;99.90;;;;;;4120397;28;20054;-86
2020/12/22 00:09:36;;;;;;;2.55;1.23;;;9.90;99.90;;;;;;4100109;28;20058;-86
2020/12/22 00:11:37;;;;;;;2.13;0.60;;;10.00;99.90;;;;;;4100461;29;20069;-86
2020/12/22 00:13:38;;;;;;;0.47;0.47;;;9.90;99.90;;;;;;4108349;28;20050;-86
2020/12/22 00:15:40;;;;;;;0.82;0.82;;;10.00;99.90;;;;;;4111358;28;20074;-85
2020/12/22 00:17:42;;;;;;;1.25;1.15;;;9.90;99.90;;;;;;4101417;28;20047;-85
2020/12/22 00:19:44;;;;;;;2.88;1.13;;;9.90;99.90;;;;;;4107680;28;20548;-85
2020/12/22 00:21:45;;;;;;;0.90;0.85;;;10.00;99.90;;;;;;4123695;28;20129;-85
2020/12/22 00:23:46;;;;;;;2.95;0.85;;;10.00;99.90;;;;;;4100456;28;20051;-85
2020/12/22 00:25:48;;;;;;;0.40;0.30;;;9.90;99.90;;;;;;4105427;28;20055;-86
2020/12/22 00:27:50;;;;;;;1.38;1.27;;;9.90;99.90;;;;;;4102443;28;20586;-85
2020/12/22 00:29:51;;;;;;;2.22;1.00;;;9.90;99.90;;;;;;4100165;28;20150;-85
2020/12/22 00:31:55;;;;;;;0.47;0.38;;;9.90;99.90;;;;;;4099741;28;20428;-86
2020/12/22 00:33:56;;;;;;;2.22;0.70;;;9.90;99.90;;;;;;4100471;28;20054;-85
2020/12/22 00:35:58;;;;;;;0.55;0.50;;;9.90;99.90;;;;;;4099499;28;20142;-85
2020/12/22 00:37:59;;;;;;;1.42;0.70;;;9.90;99.90;;;;;;4097057;28;20085;-85
2020/12/22 00:40:01;;;;;;;0.98;0.47;;;9.90;99.90;;;;;;4109404;28;20080;-85
2020/12/22 00:42:02;;;;;;;0.90;0.50;;;10.00;99.90;;;;;;4111151;28;20066;-85
2020/12/22 00:44:04;;;;;;;0.75;0.50;;;10.00;99.90;;;;;;4106098;28;20057;-84
2020/12/22 00:46:05;;;;;;;0.85;0.77;;;10.00;99.90;;;;;;4096929;28;20052;-85
2020/12/22 00:48:06;;;;;;;3.35;1.60;;;10.00;99.90;;;;;;4117282;28;20062;-85
2020/12/22 00:50:08;;;;;;;4.85;0.65;;;10.00;99.90;;;;;;4116494;28;20126;-85
2020/12/22 00:52:09;;;;;;;1.70;0.70;;;9.90;99.90;;;;;;4110264;28;20055;-85
2020/12/22 00:54:10;;;;;;;1.10;0.95;;;9.80;99.90;;;;;;4103256;28;20047;-86
2020/12/22 00:56:12;;;;;;;1.55;0.55;;;9.80;99.90;;;;;;4104673;28;20067;-86
2020/12/22 00:58:13;;;;;;;0.82;0.32;;;9.90;99.90;;;;;;4099851;28;20102;-86
2020/12/22 01:00:16;;;;;;;0.68;0.57;;;9.80;99.90;;;;;;4103571;28;20053;-88
2020/12/22 01:02:17;;;;;;;0.73;0.40;;;9.80;99.90;;;;;;4088980;28;20056;-87
2020/12/22 01:04:18;;;;;;;1.63;0.60;;;9.80;99.90;;;;;;4111383;28;20113;-87
2020/12/22 01:06:20;;;;;;;1.75;0.82;;;9.70;99.90;;;;;;4115095;28;20129;-87
2020/12/22 01:08:21;;;;;;;0.82;0.32;;;9.70;99.90;;;;;;4099267;28;20146;-88
2020/12/22 01:10:22;;;;;;;0.73;0.35;;;9.70;99.90;;;;;;4110249;28;20083;-87
2020/12/22 01:12:24;;;;;;;1.42;0.75;;;9.70;99.90;;;;;;4103601;28;20055;-87
2020/12/22 01:14:25;;;;;;;0.70;0.45;;;9.60;99.90;;;;;;4099151;28;20490;-85
2020/12/22 01:16:26;;;;;;;0.57;0.52;;;9.60;99.90;;;;;;4104727;28;20519;-85
2020/12/22 01:18:27;;;;;;;2.28;1.00;;;9.60;99.90;;;;;;4099073;28;20053;-85
2020/12/22 01:20:29;;;;;;;1.20;1.10;;;9.50;99.90;;;;;;4086355;28;20066;-86
2020/12/22 01:22:30;;;;;;;0.57;0.40;;;9.50;99.90;;;;;;4112141;28;20043;-85
2020/12/22 01:24:31;;;;;;;1.30;0.50;;;9.50;99.90;;;;;;4114407;28;20051;-85
2020/12/22 01:26:33;;;;;;;1.13;0.43;;;9.50;99.90;;;;;;4099561;28;20053;-85
2020/12/22 01:28:34;;;;;;;1.85;1.25;;;9.50;99.90;;;;;;4098779;28;20141;-85
2020/12/22 01:30:36;;;;;;;1.38;0.80;;;9.40;99.90;;;;;;4105121;28;20053;-86
2020/12/22 01:32:37;;;;;;;3.92;1.05;;;9.30;99.90;;;;;;4100952;28;20563;-85
2020/12/22 01:34:39;;;;;;;0.70;0.68;;;9.30;99.90;;;;;;4113847;28;20444;-85
2020/12/22 01:36:41;;;;;;;0.50;0.50;;;9.30;99.90;;;;;;4114639;28;20098;-85
2020/12/22 01:38:43;;;;;;;0.35;0.20;;;9.20;99.90;;;;;;4089594;28;20146;-86
2020/12/22 01:40:50;;;;;;;2.00;0.95;;;9.20;99.90;;;;;;4114420;28;20063;-85
2020/12/22 01:42:51;;;;;;;1.98;1.15;;;9.20;99.90;;;;;;4097838;28;20110;-86
2020/12/22 01:44:53;;;;;;;0.47;0.45;;;9.10;99.90;;;;;;4099235;28;20155;-85
2020/12/22 01:46:58;;;;;;;0.45;0.32;;;9.00;99.90;;;;;;4113233;28;20129;-85
2020/12/22 01:48:59;;;;;;;2.20;1.40;;;9.00;99.90;;;;;;4091560;28;20051;-85
2020/12/22 01:51:00;;;;;;;0.73;0.52;;;9.00;99.90;;;;;;4084561;28;20321;-85
2020/12/22 01:53:02;;;;;;;2.33;1.05;;;9.00;99.90;;;;;;4105330;28;20057;-85
2020/12/22 01:55:04;;;;;;;0.70;0.60;;;9.00;99.90;;;;;;4108293;28;20051;-85
2020/12/22 01:57:11;;;;;;;1.15;0.73;;;9.00;99.90;;;;;;4094839;28;20138;-85
2020/12/22 01:59:17;;;;;;;1.85;1.25;;;8.90;99.90;;;;;;4088149;28;20075;-85
2020/12/22 02:01:18;;;;;;;1.10;0.80;;;8.80;99.90;;;;;;4095152;28;20082;-85
2020/12/22 02:03:19;;;;;;;0.40;0.20;;;8.80;99.90;;;;;;4098231;28;20051;-85
2020/12/22 02:05:21;;;;;;;2.65;1.00;;;8.70;99.90;;;;;;4114592;28;20054;-85
2020/12/22 02:07:22;;;;;;;1.33;0.70;;;8.70;99.90;;;;;;4122431;28;20046;-86
2020/12/22 02:09:23;;;;;;;2.67;1.50;;;8.60;99.90;;;;;;4103154;28;20058;-85
2020/12/22 02:11:31;;;;;;;0.52;0.43;;;8.60;99.90;;;;;;4107581;28;20054;-85
2020/12/22 02:13:32;;;;;;;0.80;0.80;;;8.50;99.90;;;;;;4106499;28;20057;-86
2020/12/22 02:15:33;;;;;;;2.85;1.00;;;8.50;99.90;;;;;;4104391;28;20058;-85
2020/12/22 02:17:35;;;;;;;1.10;0.75;;;8.50;99.90;;;;;;4096904;28;20086;-85
2020/12/22 02:19:36;;;;;;;1.67;0.60;;;8.40;99.90;;;;;;4130513;28;20062;-85
2020/12/22 02:21:37;;;;;;;0.52;0.50;;;8.40;99.90;;;;;;4098319;28;20043;-86
2020/12/22 02:23:39;;;;;;;1.27;1.05;;;8.30;99.90;;;;;;4084290;29;20051;-86
2020/12/22 02:25:47;;;;;;;0.75;0.40;;;8.30;99.90;;;;;;4113035;28;20081;-86
2020/12/22 02:27:48;;;;;;;2.72;1.08;;;8.30;99.90;;;;;;4114138;28;20082;-86
2020/12/22 02:29:50;;;;;;;0.65;0.52;;;8.30;99.90;;;;;;4083092;29;20146;-85
2020/12/22 02:31:51;;;;;;;0.90;0.90;;;8.30;99.90;;;;;;4113796;28;20053;-85
2020/12/22 02:33:53;;;;;;;0.75;0.75;;;8.20;99.90;;;;;;4098315;28;20059;-85
2020/12/22 02:35:55;;;;;;;4.25;1.05;;;8.10;99.90;;;;;;4083051;29;20066;-85
2020/12/22 02:37:56;;;;;;;1.73;1.63;;;8.20;99.90;;;;;;4095609;28;20588;-85
2020/12/22 02:39:57;;;;;;;4.25;1.30;;;8.20;99.90;;;;;;4108969;28;20438;-85
2020/12/22 02:41:59;;;;;;;2.97;1.48;;;8.10;99.90;;;;;;4098080;28;20065;-85
2020/12/22 02:44:00;;;;;;;1.33;1.20;;;8.10;99.90;;;;;;4098615;28;20059;-85
2020/12/22 02:46:01;;;;;;;1.35;1.23;;;8.10;99.90;;;;;;4096591;29;20048;-85
2020/12/22 02:48:02;;;;;;;2.03;0.63;;;8.10;99.90;;;;;;4096129;28;20583;-85
2020/12/22 02:50:04;;;;;;;3.92;1.67;;;8.10;99.90;;;;;;4096704;28;20066;-84
2020/12/22 02:52:05;;;;;;;0.57;0.57;;;8.10;99.90;;;;;;4096971;29;20051;-85
2020/12/22 02:54:07;;;;;;;1.90;0.77;;;8.00;99.90;;;;;;4098207;28;20058;-85
2020/12/22 02:56:09;;;;;;;0.88;0.75;;;8.00;99.90;;;;;;4097986;28;20051;-85
2020/12/22 02:58:10;;;;;;;1.58;0.55;;;8.00;99.90;;;;;;4091431;28;20496;-85
2020/12/22 03:00:11;;;;;;;2.03;1.83;;;7.90;99.90;;;;;;4088696;28;20063;-85
2020/12/22 03:02:13;;;;;;;0.50;0.40;;;7.80;99.90;;;;;;4117381;28;20467;-85
2020/12/22 03:04:14;;;;;;;1.85;0.93;;;7.80;99.90;;;;;;4111691;28;20057;-85
2020/12/22 03:06:15;;;;;;;2.42;0.75;;;7.80;99.90;;;;;;4095850;28;20435;-85
2020/12/22 03:08:17;;;;;;;0.85;0.77;;;7.80;99.90;;;;;;4101858;28;20165;-85
2020/12/22 03:10:18;;;;;;;2.10;1.17;;;7.80;99.90;;;;;;4096736;28;20052;-85
2020/12/22 03:12:20;;;;;;;1.88;0.95;;;7.90;99.90;;;;;;4105163;28;20047;-86
2020/12/22 03:14:21;;;;;;;1.98;1.13;;;7.80;99.90;;;;;;4113459;28;20054;-85
2020/12/22 03:16:22;;;;;;;0.70;0.50;;;7.80;99.90;;;;;;4104141;28;20054;-85
2020/12/22 03:18:24;;;;;;;1.70;0.95;;;7.80;99.90;;;;;;4089705;28;20055;-85
2020/12/22 03:20:25;;;;;;;0.65;0.52;;;7.80;99.90;;;;;;4101115;28;20054;-85
2020/12/22 03:22:27;;;;;;;4.47;1.45;;;7.80;99.90;;;;;;4114083;28;20051;-85
2020/12/22 03:24:28;;;;;;;1.10;0.90;;;7.70;99.90;;;;;;4115461;28;20073;-85
2020/12/22 03:26:29;;;;;;;0.90;0.90;;;7.70;99.90;;;;;;4101091;28;20138;-85
2020/12/22 03:28:30;;;;;;;1.63;1.27;;;7.60;99.90;;;;;;4093418;28;20051;-85
2020/12/22 03:30:32;;;;;;;1.17;0.75;;;7.70;99.90;;;;;;4104610;28;20686;-85
2020/12/22 03:32:33;;;;;;;1.20;0.95;;;7.70;99.90;;;;;;4098570;28;20524;-86
2020/12/22 03:34:34;;;;;;;1.40;0.70;;;7.70;99.90;;;;;;4110508;28;20515;-85
2020/12/22 03:36:35;;;;;;;1.27;0.70;;;7.60;99.90;;;;;;4104351;28;20059;-85
2020/12/22 03:38:37;;;;;;;0.95;0.73;;;7.50;99.90;;;;;;4114981;28;20062;-85
2020/12/22 03:40:38;;;;;;;2.30;2.10;;;7.50;99.90;;;;;;4111880;28;20106;-86
2020/12/22 03:42:40;;;;;;;1.00;0.77;;;7.50;99.90;;;;;;4104602;28;20054;-86
2020/12/22 03:44:42;;;;;;;0.63;0.63;;;7.50;99.90;;;;;;4100534;28;20508;-86
2020/12/22 03:46:47;;;;;;;1.10;0.90;;;7.40;99.90;;;;;;4100021;28;20043;-85
2020/12/22 03:48:49;;;;;;;0.93;0.60;;;7.40;99.90;;;;;;4093837;28;20052;-86
2020/12/22 03:50:52;;;;;;;2.15;1.48;;;7.40;99.90;;;;;;4100275;28;20051;-86
2020/12/22 03:52:53;;;;;;;1.42;1.13;;;7.40;99.90;;;;;;4108414;28;20047;-86
2020/12/22 03:54:54;;;;;;;1.65;0.75;;;7.40;99.90;;;;;;4092001;29;20130;-86
2020/12/22 03:56:55;;;;;;;1.20;0.73;;;7.40;99.90;;;;;;4117102;28;20059;-85
2020/12/22 03:58:57;;;;;;;1.35;0.90;;;7.40;99.90;;;;;;4100450;28;20051;-86
2020/12/22 04:00:58;;;;;;;2.25;1.88;;;7.40;99.90;;;;;;4092347;28;20055;-86
2020/12/22 04:03:00;;;;;;;1.52;1.15;;;7.40;99.90;;;;;;4100898;28;20051;-86
2020/12/22 04:05:05;;;;;;;0.75;0.75;;;7.40;99.90;;;;;;4089316;28;20545;-86
2020/12/22 04:07:06;;;;;;;2.25;1.58;;;7.40;99.90;;;;;;4094125;28;20055;-86
2020/12/22 04:09:07;;;;;;;1.63;1.42;;;7.40;99.90;;;;;;4086924;29;20085;-86
2020/12/22 04:11:08;;;;;;;1.05;0.90;;;7.50;99.90;;;;;;4099965;28;20411;-85
2020/12/22 04:13:09;;;;;;;1.13;0.57;;;7.50;99.90;;;;;;4113163;28;20064;-86
2020/12/22 04:15:11;;;;;;;2.25;1.85;;;7.50;99.90;;;;;;4098975;28;20054;-86
2020/12/22 04:17:12;;;;;;;0.40;0.30;;;7.50;99.90;;;;;;4115151;28;20054;-86
2020/12/22 04:19:14;;;;;;;2.17;0.65;;;7.60;99.90;;;;;;4095213;28;20043;-86
2020/12/22 04:21:15;;;;;;;0.85;0.73;;;7.50;99.90;;;;;;4087749;28;20051;-86
2020/12/22 04:23:16;;;;;;;1.10;0.55;;;7.50;99.90;;;;;;4088694;29;20146;-86
2020/12/22 04:25:18;;;;;;;0.77;0.77;;;7.50;99.90;;;;;;4110933;28;20047;-86
2020/12/22 04:27:19;;;;;;;1.85;1.08;;;7.50;99.90;;;;;;4115788;28;20054;-85
2020/12/22 04:29:20;;;;;;;5.53;0.80;;;7.50;99.90;;;;;;4127988;28;20051;-86
2020/12/22 04:31:22;;;;;;;1.45;1.35;;;7.60;99.90;;;;;;4115177;28;20078;-86
2020/12/22 04:33:23;;;;;;;1.73;1.10;;;7.60;99.90;;;;;;4099173;28;20888;-86
2020/12/22 04:35:24;;;;;;;1.90;0.82;;;7.60;99.90;;;;;;4112861;28;20150;-86
2020/12/22 04:37:26;;;;;;;0.70;0.55;;;7.70;99.90;;;;;;4099191;28;20491;-85
2020/12/22 04:39:28;;;;;;;1.13;1.02;;;7.70;99.90;;;;;;4099839;28;20431;-85
2020/12/22 04:41:31;;;;;;;0.80;0.80;;;7.80;99.90;;;;;;4120688;28;20058;-85
2020/12/22 04:43:32;;;;;;;1.88;1.45;;;7.80;99.90;;;;;;4099248;28;20047;-85
2020/12/22 04:45:34;;;;;;;0.98;0.98;;;7.90;99.90;;;;;;4099294;28;20103;-85
2020/12/22 04:47:35;;;;;;;1.25;1.23;;;7.90;99.90;;;;;;4115926;28;20054;-85
2020/12/22 04:49:39;;;;;;;1.60;1.10;;;8.00;99.90;;;;;;4088739;28;20078;-85
2020/12/22 04:51:41;;;;;;;4.22;1.33;;;8.00;99.90;;;;;;4090645;28;20051;-85
2020/12/22 04:54:04;;;;;;;1.67;1.15;;;8.00;99.90;;;;;;4090845;28;20142;-85
2020/12/22 04:56:07;;;;;;;1.38;1.08;;;8.00;99.90;;;;;;4099720;28;20051;-85
2020/12/22 04:58:08;;;;;;;0.93;0.60;;;8.10;99.90;;;;;;4121001;28;20054;-85
2020/12/22 05:00:10;;;;;;;0.77;0.77;;;8.10;99.90;;;;;;4084790;28;20043;-85
2020/12/22 05:02:11;;;;;;;2.83;1.48;;;8.10;99.90;;;;;;4083542;29;20500;-85
2020/12/22 05:04:13;;;;;;;0.60;0.60;;;8.10;99.90;;;;;;4098020;28;20043;-85
2020/12/22 05:06:14;;;;;;;2.13;1.40;;;8.20;99.90;;;;;;4101217;28;20126;-86
2020/12/22 05:08:15;;;;;;;0.60;0.55;;;8.20;99.90;;;;;;4115701;28;20058;-85
2020/12/22 05:10:17;;;;;;;0.52;0.52;;;8.20;99.90;;;;;;4098599;28;20047;-85
2020/12/22 05:12:18;;;;;;;2.03;1.15;;;8.20;99.90;;;;;;4098101;28;20054;-85
2020/12/22 05:14:20;;;;;;;1.45;0.82;;;8.30;99.90;;;;;;4099870;28;20051;-85
2020/12/22 05:16:27;;;;;;;1.98;1.52;;;8.20;99.90;;;;;;4088358;28;20047;-85
2020/12/22 05:18:28;;;;;;;1.13;0.50;;;8.30;99.90;;;;;;4112940;28;20054;-85
2020/12/22 05:20:30;;;;;;;2.70;1.30;;;8.30;99.90;;;;;;4109932;28;20129;-85
2020/12/22 05:22:35;;;;;;;0.93;0.85;;;8.30;99.90;;;;;;4098111;28;20051;-85
2020/12/22 05:24:37;;;;;;;0.95;0.73;;;8.30;99.90;;;;;;4114892;28;20056;-85
2020/12/22 05:26:38;;;;;;;9.57;1.95;;;8.30;99.90;;;;;;4099488;28;20134;-85
2020/12/22 05:28:41;;;;;;;0.70;0.60;;;8.30;99.90;;;;;;4097746;28;20055;-84
2020/12/22 05:30:46;;;;;;;2.05;1.95;;;8.30;99.90;;;;;;4098967;28;20119;-85
2020/12/22 05:32:51;;;;;;;;;;;8.30;99.90;;;;;;4092628;28;20527;-85
2020/12/22 05:34:53;;;;;;;0.35;0.35;;;8.30;99.90;;;;;;4145770;28;19925;-85
2020/12/22 05:36:57;;;;;;;2.05;1.83;;;8.30;99.90;;;;;;4114757;28;20051;-85
2020/12/22 05:38:58;;;;;;;1.10;0.65;;;8.30;99.90;;;;;;4099121;28;20504;-85
2020/12/22 05:41:01;;;;;;;1.02;0.93;;;8.30;99.90;;;;;;4115148;28;20054;-84
2020/12/22 05:43:02;;;;;;;1.02;0.93;;;8.30;99.90;;;;;;4094401;28;20063;-85
2020/12/22 05:45:05;;;;;;;1.52;1.42;;;8.30;99.90;;;;;;4114239;28;20488;-85
2020/12/22 05:47:06;;;;;;;2.35;0.98;;;8.30;99.90;;;;;;4097660;28;20055;-85
2020/12/22 05:49:08;;;;;;;3.45;0.65;;;8.30;99.90;;;;;;4109080;28;20062;-85
2020/12/22 05:51:12;;;;;;;2.65;1.95;;;8.30;99.90;;;;;;4099246;28;20054;-85
2020/12/22 05:53:14;;;;;;;1.35;1.30;;;8.40;99.90;;;;;;4096327;28;20063;-84
2020/12/22 05:55:24;;;;;;;5.20;2.50;;;8.40;99.90;;;;;;4104656;28;20062;-85
2020/12/22 05:57:29;;;;;;;1.15;0.80;;;8.40;99.90;;;;;;4098819;28;20065;-85
2020/12/22 05:59:30;;;;;;;;;;;8.40;99.90;;;;;;4106272;28;20063;-86
2020/12/22 06:01:33;;;;;;;1.25;0.70;;;8.40;99.90;;;;;;4114457;28;19922;-85
2020/12/22 06:03:34;;;;;;;0.50;0.50;;;8.40;99.90;;;;;;4110750;28;20135;-86
2020/12/22 06:05:38;;;;;;;3.83;1.67;;;8.50;99.90;;;;;;4130244;28;20061;-85
2020/12/22 06:07:40;;;;;;;1.70;1.10;;;8.50;99.90;;;;;;4112450;28;20093;-86
2020/12/22 06:09:41;;;;;;;4.35;1.50;;;8.40;99.90;;;;;;4101022;28;20671;-85
2020/12/22 06:11:43;;;;;;;3.50;1.70;;;8.50;99.90;;;;;;4098972;28;20055;-85
2020/12/22 06:13:47;;;;;;;1.50;1.25;;;8.50;99.90;;;;;;4114917;28;20133;-86
2020/12/22 06:15:49;;;;;;;0.80;0.80;;;8.60;99.90;;;;;;4088630;28;20051;-86
2020/12/22 06:17:53;;;;;;;1.90;0.93;;;8.60;99.90;;;;;;4092194;28;20055;-86
2020/12/22 06:19:54;;;;;;;2.33;1.27;;;8.70;99.90;;;;;;4096732;28;20054;-86
2020/12/22 06:21:57;;;;;;;1.20;0.68;;;8.70;99.90;;;;;;4103325;28;20439;-85
2020/12/22 06:23:58;;;;;;;0.90;0.60;;;8.70;99.90;;;;;;4091797;28;20058;-85
2020/12/22 06:26:05;;;;;;;4.10;0.93;;;8.60;99.90;;;;;;4096506;29;20044;-85
2020/12/22 06:28:19;;;;;;;4.78;1.60;;;8.70;99.90;;;;;;4110453;28;20057;-86
2020/12/22 06:30:34;;;;;;;0.75;0.75;;;8.60;99.90;;;;;;4098305;28;20047;-86
2020/12/22 06:32:44;;;;;;;1.75;1.55;;;8.60;99.90;;;;;;4098178;28;20492;-86
2020/12/22 06:34:46;;;;;;;0.70;0.47;;;8.60;99.90;;;;;;4101456;28;20547;-86
2020/12/22 06:36:57;;;;;;;1.90;1.38;;;8.70;99.90;;;;;;4101283;28;20157;-85
2020/12/22 06:38:59;;;;;;;2.10;1.77;;;8.70;99.90;;;;;;4115249;28;20051;-86
2020/12/22 06:41:02;;;;;;;1.92;1.38;;;8.70;99.90;;;;;;4121888;28;20055;-86
2020/12/22 06:43:04;;;;;;;2.45;1.20;;;8.70;99.90;;;;;;4109623;28;20137;-86
2020/12/22 06:45:28;;;;;;;0.47;0.40;;;8.70;99.90;;;;;;4103848;28;20047;-86
2020/12/22 06:47:34;;;;;;;0.95;0.73;;;8.70;99.90;;;;;;4118182;28;20102;-85
2020/12/22 06:49:50;;;;;;;1.90;0.85;;;8.70;99.90;;;;;;4112784;28;20490;-85
2020/12/22 06:51:53;;;;;;;1.38;0.90;;;8.70;99.90;;;;;;4129105;28;20054;-86
2020/12/22 06:53:55;;;;;;;1.20;1.08;;;8.70;99.90;;;;;;4098007;29;20057;-86
2020/12/22 06:55:56;;;;;;;1.52;0.68;;;8.80;99.90;;;;;;4092461;29;20052;-86
2020/12/22 06:57:58;;;;;;;0.93;0.80;;;8.70;99.90;;;;;;4095597;28;20570;-86
2020/12/22 06:59:59;;;;;;;0.60;0.60;;;8.70;99.90;;;;;;4118260;28;20057;-87
2020/12/22 07:02:02;;;;;;;2.83;1.25;;;8.70;99.90;;;;;;4116444;28;20094;-86
2020/12/22 07:04:20;;;;;;;1.88;0.88;;;8.70;99.90;;;;;;4116899;28;20047;-88
2020/12/22 07:06:43;;;;;;;1.63;1.48;;;8.80;99.90;;;;;;4113829;28;20142;-86
2020/12/22 07:08:45;;;;;;;1.23;1.13;;;8.80;99.90;;;;;;4130262;28;20085;-86
2020/12/22 07:10:48;;;;;;;3.67;2.05;;;8.80;99.90;;;;;;4095604;29;20500;-87
2020/12/22 07:12:50;;;;;;;0.57;0.52;;;8.80;99.90;;;;;;4095736;28;20413;-85
2020/12/22 07:14:51;;;;;;;2.92;2.00;;;8.80;99.90;;;;;;4086316;28;20051;-86
2020/12/22 07:16:54;;;;;;;3.78;1.77;;;8.90;99.90;;;;;;4086930;28;20111;-86
2020/12/22 07:18:55;;;;;;;1.30;1.20;;;8.90;99.90;;;;;;4102561;28;20062;-85
2020/12/22 07:20:57;;;;;;;1.00;1.00;;;8.80;99.90;;;;;;4091972;28;20050;-85
2020/12/22 07:22:58;;;;;;;0.80;0.80;;;8.80;99.90;;;;;;4103919;28;20532;-90
2020/12/22 07:25:08;;;;;;;2.40;1.65;;;8.70;99.90;;;;;;4149698;28;20030;-80
2020/12/22 07:27:09;;;;;;;2.95;1.38;;;8.70;99.90;;;;;;4154363;28;20061;-84
2020/12/22 07:29:11;;;;;;;0.90;0.68;;;8.70;99.90;;;;;;4154313;28;20072;-85
2020/12/22 07:31:12;;;;;;;3.40;2.20;;;8.70;99.90;;;;;;4137828;28;20070;-84
2020/12/22 07:33:13;;;;;;;2.72;1.75;;;8.80;99.90;;;;;;4138371;28;20075;-85
2020/12/22 07:35:15;;;;;;;1.67;1.58;;;8.90;99.90;;;;;;4154705;28;20062;-86
2020/12/22 07:37:27;;;;;;;9.57;1.33;;;8.90;99.90;;;;;;4134461;28;20118;-87
2020/12/22 07:39:31;;;;;;;2.00;1.20;;;8.90;99.90;;;;;;4153291;28;20097;-91
2020/12/22 07:41:33;;;;;;;2.15;1.95;;;8.90;99.90;;;;;;4136165;28;20098;-81
2020/12/22 07:43:34;;;;;;;4.68;1.73;;;9.00;99.90;;;;;;4147958;28;20034;-82
2020/12/22 07:45:48;;;;;;;0.95;0.77;;;9.00;99.90;;;;;;4141786;28;20125;-91
2020/12/22 07:47:50;;;;;;;2.70;1.42;;;9.00;99.90;;;;;;4117278;28;20047;-91
2020/12/22 07:49:51;;;;;;;2.38;2.17;;;9.00;99.90;;;;;;4117153;28;20043;-91
2020/12/22 07:51:52;;;;;;;2.78;2.00;;;9.00;99.90;;;;;;4128752;28;20046;-93
2020/12/22 07:54:04;;;;;;;1.67;1.27;;;9.00;99.90;;;;;;4132960;28;20130;-92
2020/12/22 07:56:05;;;;;;;4.35;1.60;;;9.00;99.90;;;;;;4106107;28;20477;-93
2020/12/22 07:58:07;;;;;;;2.13;1.48;;;9.00;99.90;;;;;;4125882;28;20457;-92
2020/12/22 08:00:09;;;;;;;3.90;2.40;;;8.90;99.90;;;;;;4132448;28;20133;-93
2020/12/22 08:02:11;;;;;;;2.65;1.42;;;9.00;99.90;;;;;;4133691;28;20046;-93
2020/12/22 08:04:19;;;;;;;2.65;1.60;;;9.00;99.90;;;;;;4134696;28;20046;-93
2020/12/22 08:06:20;;;;;;;1.48;0.95;;;9.10;99.90;;;;;;4117553;28;20047;-92
2020/12/22 08:08:22;;;;;;;4.55;2.22;;;9.10;99.90;;;;;;4133734;28;20145;-93
2020/12/22 08:10:24;;;;;;;3.88;3.13;;;9.10;99.90;;;;;;4100997;28;20121;-93
2020/12/22 08:12:25;;;;;;;2.90;1.98;;;9.10;99.90;;;;;;4114573;28;20039;-93
2020/12/22 08:14:27;;;;;;;5.85;2.65;;;9.10;99.90;;;;;;4101393;28;20055;-92
2020/12/22 08:16:30;;;;;;;3.22;1.85;;;9.10;99.90;;;;;;4095320;28;20050;-93
2020/12/22 08:18:32;;;;;;;2.58;1.45;;;9.10;99.90;;;;;;4111263;28;20051;-93
2020/12/22 08:20:34;;;;;;;3.53;2.47;;;9.20;99.90;;;;;;4104040;28;20450;-93
2020/12/22 08:22:49;;;;;;;4.68;2.10;;;9.20;99.90;;;;;;4118785;28;20085;-93
2020/12/22 08:24:50;;;;;;;7.95;4.05;;;9.20;99.90;;;;;;4096128;28;20054;-91
2020/12/22 08:26:52;;;;;;;1.35;1.20;;;9.20;99.90;;;;;;4091447;28;20051;-92
2020/12/22 08:28:56;;;;;;;1.92;1.27;;;9.20;99.90;;;;;;4118034;28;20055;-94
2020/12/22 08:31:08;;;;;;;1.42;1.23;;;9.30;99.90;;;;;;4115287;28;20062;-93
2020/12/22 08:33:09;;;;;;;6.07;1.83;;;9.30;99.90;;;;;;4116952;28;20455;-93
2020/12/22 08:35:11;;;;;;;3.42;1.98;;;9.30;99.90;;;;;;4100308;28;20602;-93
2020/12/22 08:37:12;;;;;;;2.42;1.80;;;9.30;99.90;;;;;;4109090;28;20050;-92
2020/12/22 08:39:21;;;;;;;0.90;0.88;;;9.40;99.90;;;;;;4131408;28;20129;-94
2020/12/22 08:41:22;;;;;;;3.50;2.03;;;9.40;99.90;;;;;;4113705;28;20133;-92
2020/12/22 08:43:24;;;;;;;3.00;1.30;;;9.50;99.90;;;;;;4132079;28;20430;-92
2020/12/22 08:45:28;;;;;;;3.15;1.75;;;9.50;99.90;;;;;;4100764;28;20110;-93
2020/12/22 08:47:29;;;;;;;2.38;2.17;;;9.60;99.90;;;;;;4113275;28;20043;-93
2020/12/22 08:49:32;;;;;;;3.33;2.30;;;9.50;99.90;;;;;;4129418;28;20046;-91
2020/12/22 08:51:33;;;;;;;2.35;1.35;;;9.60;99.90;;;;;;4101101;28;20051;-93
2020/12/22 08:53:47;;;;;;;1.17;1.05;;;9.60;99.90;;;;;;4098957;28;20130;-95
2020/12/22 08:55:49;;;;;;;1.98;1.55;;;9.70;99.90;;;;;;4115814;28;20047;-92
2020/12/22 08:57:50;;;;;;;3.97;1.75;;;9.70;99.90;;;;;;4124273;28;20046;-93
2020/12/22 08:59:52;;;;;;;1.55;1.15;;;9.70;99.90;;;;;;4091213;28;20052;-90
2020/12/22 09:01:53;;;;;;;1.95;0.90;;;9.70;99.90;;;;;;4116386;28;20134;-91
2020/12/22 09:03:57;;;;;;;3.90;1.83;;;9.70;99.90;;;;;;4115718;28;20062;-91
2020/12/22 09:05:58;;;;;;;1.33;0.93;;;9.70;99.90;;;;;;4099997;28;20055;-92
2020/12/22 09:08:05;;;;;;;2.55;0.80;;;9.80;99.90;;;;;;4121620;28;20109;-91
2020/12/22 09:10:11;;;;;;;1.65;1.55;;;9.90;99.90;;;;;;4108125;28;20062;-92
2020/12/22 09:12:12;;;;;;;3.67;1.15;;;9.90;99.90;;;;;;4119146;28;20046;-90
2020/12/22 09:14:14;;;;;;;1.83;1.13;;;9.90;99.90;;;;;;4121991;28;20060;-91
2020/12/22 09:16:15;;;;;;;2.42;1.38;;;9.90;99.90;;;;;;4123682;28;20057;-91
2020/12/22 09:18:16;;;;;;;0.98;0.70;;;10.00;99.90;;;;;;4125388;28;20056;-93
2020/12/22 09:20:18;;;;;;;0.73;0.73;;;10.00;99.90;;;;;;4108193;28;20073;-91
2020/12/22 09:22:21;;;;;;;3.72;2.35;;;10.00;99.90;;;;;;4108639;28;20129;-91
2020/12/22 09:24:22;;;;;;;3.45;1.23;;;10.10;99.90;;;;;;4131656;28;20043;-91
2020/12/22 09:26:24;;;;;;;1.58;1.33;;;10.20;99.90;;;;;;4132042;28;20133;-92
2020/12/22 09:28:25;;;;;;;2.90;1.42;;;10.20;99.90;;;;;;4131128;28;20133;-93
2020/12/22 09:30:26;;;;;;;2.13;1.00;;;10.30;99.90;;;;;;4131701;28;20046;-92
2020/12/22 09:32:28;;;;;;;1.88;1.65;;;10.30;99.90;;;;;;4102990;28;20135;-91
2020/12/22 09:34:30;;;;;;;1.05;0.52;;;10.30;99.90;;;;;;4126913;28;20129;-92
2020/12/22 09:36:31;;;;;;;1.63;1.35;;;10.30;99.90;;;;;;4131241;28;20048;-93
2020/12/22 09:38:33;;;;;;;2.00;0.98;;;10.40;99.90;;;;;;4116329;28;20089;-90
2020/12/22 09:40:34;;;;;;;1.98;1.55;;;10.40;99.90;;;;;;4116170;28;20141;-92
2020/12/22 09:42:36;;;;;;;1.13;1.02;;;10.50;99.90;;;;;;4104043;28;20043;-92
2020/12/22 09:44:37;;;;;;;3.53;0.85;;;10.50;99.90;;;;;;4117670;28;20051;-92
2020/12/22 09:46:39;;;;;;;1.55;0.93;;;10.50;99.90;;;;;;4129886;28;20043;-92
2020/12/22 09:48:40;;;;;;;2.42;1.05;;;10.60;99.90;;;;;;4129972;28;20506;-90
2020/12/22 09:50:41;;;;;;;2.28;1.85;;;10.70;99.90;;;;;;4131979;28;20505;-92
2020/12/22 09:52:42;;;;;;;1.52;1.38;;;10.70;99.90;;;;;;4098753;28;20549;-90
2020/12/22 09:54:44;;;;;;;1.48;0.95;;;10.70;99.90;;;;;;4103980;28;20125;-92
2020/12/22 09:56:45;;;;;;;0.90;0.75;;;10.70;99.90;;;;;;4116841;28;20056;-90
2020/12/22 09:58:47;;;;;;;4.55;1.42;;;10.80;99.90;;;;;;4123934;28;20129;-92
2020/12/22 10:00:48;;;;;;;0.80;0.55;;;10.90;99.90;;;;;;4110245;28;20043;-92
2020/12/22 10:02:49;;;;;;;1.15;0.60;;;10.90;99.90;;;;;;4116969;28;20146;-89
2020/12/22 10:04:51;;;;;;;1.75;0.70;;;10.90;99.90;;;;;;4108175;28;20055;-93
2020/12/22 10:06:52;;;;;;;0.77;0.68;;;11.00;99.90;;;;;;4125488;28;20414;-93
2020/12/22 10:08:54;;;;;;;2.95;0.68;;;11.00;99.90;;;;;;4099489;28;20056;-88
2020/12/22 10:10:55;;;;;;;2.30;0.60;;;11.00;99.90;;;;;;4130811;28;20056;-91
2020/12/22 10:12:56;;;;;;;1.98;1.40;;;11.00;99.90;;;;;;4113034;28;20061;-96
2020/12/22 10:14:57;;;;;;;1.95;1.08;;;11.10;99.90;;;;;;4133376;28;20053;-92
2020/12/22 10:16:58;;;;;;;0.50;0.40;;;11.10;99.90;;;;;;4114993;28;20053;-91
2020/12/22 10:19:00;;;;;;;1.52;0.80;;;11.10;99.90;;;;;;4116434;28;20081;-91
2020/12/22 10:21:08;;;;;;;3.03;1.85;;;11.10;99.90;;;;;;4111893;28;20597;-90
2020/12/22 10:23:09;;;;;;;0.88;0.57;;;11.10;99.90;;;;;;4105535;28;20516;-89
2020/12/22 10:25:10;;;;;;;1.15;0.98;;;11.10;99.90;;;;;;4126597;28;20056;-92
2020/12/22 10:27:12;;;;;;;1.15;0.73;;;11.30;99.90;;;;;;4130787;28;20061;-88
2020/12/22 10:29:13;;;;;;;3.88;1.50;;;11.30;99.90;;;;;;4126648;28;20050;-89
2020/12/22 10:31:16;;;;;;;1.35;1.15;;;11.40;99.90;;;;;;4124205;28;20038;-85
2020/12/22 10:33:18;;;;;;;5.05;1.95;;;11.40;99.90;;;;;;4129383;28;20081;-89
2020/12/22 10:35:19;;;;;;;1.40;0.85;;;11.50;99.90;;;;;;4099478;28;20077;-88
2020/12/22 10:37:22;;;;;;;2.90;1.42;;;11.50;99.90;;;;;;4126760;28;20057;-88
2020/12/22 10:39:23;;;;;;;1.30;0.80;;;11.50;99.90;;;;;;4129108;28;20038;-88
2020/12/22 10:41:24;;;;;;;0.90;0.45;;;11.60;99.90;;;;;;4131791;28;20165;-88
2020/12/22 10:43:26;;;;;;;4.82;1.45;;;11.70;99.90;;;;;;4094350;28;20067;-91
2020/12/22 10:45:28;;;;;;;2.50;1.50;;;11.70;99.90;;;;;;4120119;28;20764;-88